Terminal Aerodrome Forecast
Issued by NWS Melbourne, FL

Home | Current Version | Previous Version | Text Only | Print | Product List | Glossary On
Versions: 1 2 3 4 5 6 7 8 9 10 11 12 13 14
000
FTUS42 KMLB 211700 RRA
TAFVRB
TAF
KVRB 211741Z 2118/2218 06015G21KT P6SM VCSH SCT045 OVC100
     FM220000 07013KT P6SM VCSH BKN040 OVC090
     FM221100 09015G21KT P6SM VCSH OVC030=

USA.gov is the U.S. government's official web portal to all federal, state and local government web resources and services.